Time;durP1;ratioP1;P1;durP2;ratioP2;P2;SDS_P1;SDS_P2;PMS_P1;PMS_P2;Temp;Humidity;BMP_temperature;BMP_pressure;BME280_temperature;BME280_humidity;BME280_pressure;Samples;Min_cycle;Max_cycle;Signal;HPM_P1;HPM_P2
2024/01/10 00:00:40;;;;;;;;;;;;;;;19.59;26.07;96242.63;10518145;28;1973;-64
2024/01/10 00:05:41;;;;;;;;;;;;;;;19.58;25.96;96251.56;10495835;28;2476;-64
2024/01/10 00:10:41;;;;;;;;;;;;;;;19.56;25.74;96243.16;10513109;28;2127;-64
2024/01/10 00:15:41;;;;;;;;;;;;;;;19.56;25.83;96246.53;10498086;28;1905;-63
2024/01/10 00:20:41;;;;;;;;;;;;;;;19.53;25.92;96241.00;10503818;28;1953;-65
2024/01/10 00:25:42;;;;;;;;;;;;;;;19.50;26.11;96239.69;10512854;28;2049;-64
2024/01/10 00:30:42;;;;;;;;;;;;;;;19.52;25.89;96242.03;10506019;28;2121;-66
2024/01/10 00:35:42;;;;;;;;;;;;;;;19.51;25.87;96240.47;10510158;28;2055;-66
2024/01/10 00:40:43;;;;;;;;;;;;;;;19.49;25.77;96246.78;10488904;28;2026;-66
2024/01/10 00:45:43;;;;;;;;;;;;;;;19.48;25.97;96247.03;10515820;28;2145;-65
2024/01/10 00:50:44;;;;;;;;;;;;;;;19.49;25.97;96243.38;10512589;28;1874;-65
2024/01/10 00:55:44;;;;;;;;;;;;;;;19.46;25.94;96249.13;10518036;28;2753;-65
2024/01/10 01:00:44;;;;;;;;;;;;;;;19.45;25.56;96247.56;10513486;28;2182;-65
2024/01/10 01:05:45;;;;;;;;;;;;;;;19.44;25.63;96244.13;10508857;28;2082;-65
2024/01/10 01:10:45;;;;;;;;;;;;;;;19.43;25.47;96247.03;10514158;28;1893;-65
2024/01/10 01:15:45;;;;;;;;;;;;;;;19.41;25.67;96257.75;10511861;28;1966;-65
2024/01/10 01:20:48;;;;;;;;;;;;;;;19.41;25.79;96251.75;10509879;28;2007;-65
2024/01/10 01:25:49;;;;;;;;;;;;;;;19.38;25.60;96263.53;10511395;28;2032;-65
2024/01/10 01:30:49;;;;;;;;;;;;;;;19.37;25.54;96254.06;10510575;28;1982;-65
2024/01/10 01:35:49;;;;;;;;;;;;;;;19.36;25.65;96263.00;10519026;28;2155;-65
2024/01/10 01:40:52;;;;;;;;;;;;;;;19.38;25.53;96271.44;10522590;28;2092;-65
2024/01/10 01:45:53;;;;;;;;;;;;;;;19.36;25.42;96270.91;10522131;28;1939;-66
2024/01/10 01:50:54;;;;;;;;;;;;;;;19.35;25.31;96279.81;10523337;28;2505;-64
2024/01/10 01:55:54;;;;;;;;;;;;;;;19.35;25.90;96279.03;10505533;28;2078;-65
2024/01/10 02:00:55;;;;;;;;;;;;;;;19.32;25.62;96287.38;10520439;28;1963;-64
2024/01/10 02:05:55;;;;;;;;;;;;;;;19.32;25.69;96282.13;10500605;28;1943;-64
2024/01/10 02:10:55;;;;;;;;;;;;;;;19.31;25.70;96270.81;10504793;28;1966;-64
2024/01/10 02:15:56;;;;;;;;;;;;;;;19.29;25.63;96267.66;10523513;28;1877;-64
2024/01/10 02:20:57;;;;;;;;;;;;;;;19.30;25.38;96274.50;10521568;28;2086;-63
2024/01/10 02:25:58;;;;;;;;;;;;;;;19.33;25.50;96275.84;10503225;28;2098;-65
2024/01/10 02:30:58;;;;;;;;;;;;;;;19.28;25.55;96273.97;10523309;28;2439;-66
2024/01/10 02:35:58;;;;;;;;;;;;;;;19.30;25.35;96282.38;10522843;28;1989;-66
2024/01/10 02:41:00;;;;;;;;;;;;;;;19.27;25.42;96279.44;10497265;28;2189;-64
2024/01/10 02:46:00;;;;;;;;;;;;;;;19.29;25.50;96280.78;10515500;28;2476;-66
2024/01/10 02:51:00;;;;;;;;;;;;;;;19.26;25.34;96283.94;10518937;28;1962;-64
2024/01/10 02:56:01;;;;;;;;;;;;;;;19.27;25.54;96272.38;10514359;28;1959;-64
2024/01/10 03:01:01;;;;;;;;;;;;;;;19.27;25.36;96272.38;10516833;28;1970;-64
2024/01/10 03:06:01;;;;;;;;;;;;;;;19.26;25.27;96270.78;10516478;28;1929;-64
2024/01/10 03:11:04;;;;;;;;;;;;;;;19.24;25.28;96265.00;10514428;28;2590;-65
2024/01/10 03:16:04;;;;;;;;;;;;;;;19.24;25.49;96259.75;10515335;28;2067;-64
2024/01/10 03:21:04;;;;;;;;;;;;;;;19.24;25.18;96266.84;10522163;28;1989;-64
2024/01/10 03:26:05;;;;;;;;;;;;;;;19.23;25.40;96260.78;10516077;28;2136;-64
2024/01/10 03:31:05;;;;;;;;;;;;;;;19.23;25.20;96260.78;10510912;28;2091;-63
2024/01/10 03:36:06;;;;;;;;;;;;;;;19.22;25.15;96259.22;10514604;28;1868;-64
2024/01/10 03:41:06;;;;;;;;;;;;;;;19.22;25.33;96248.69;10499598;28;1913;-64
2024/01/10 03:46:06;;;;;;;;;;;;;;;19.21;25.15;96248.91;10520508;28;1901;-64
2024/01/10 03:51:06;;;;;;;;;;;;;;;19.21;25.09;96249.72;10518293;28;1881;-65
2024/01/10 03:56:07;;;;;;;;;;;;;;;19.21;25.07;96247.09;10512730;28;2567;-64
2024/01/10 04:01:07;;;;;;;;;;;;;;;19.21;24.99;96244.47;10517247;28;2190;-64
2024/01/10 04:06:08;;;;;;;;;;;;;;;19.21;25.09;96241.84;10513662;28;1869;-64
2024/01/10 04:11:09;;;;;;;;;;;;;;;19.21;25.17;96235.78;10511938;28;2242;-64
2024/01/10 04:16:09;;;;;;;;;;;;;;;19.19;25.14;96233.41;10512047;28;2015;-64
2024/01/10 04:21:12;;;;;;;;;;;;;;;19.20;25.05;96242.91;10496378;28;1914;-64
2024/01/10 04:26:12;;;;;;;;;;;;;;;19.20;24.93;96235.00;10508326;28;1914;-64
2024/01/10 04:31:12;;;;;;;;;;;;;;;19.19;25.05;96249.19;10503455;28;2040;-64
2024/01/10 04:36:12;;;;;;;;;;;;;;;19.21;24.95;96246.28;10509107;28;2318;-64
2024/01/10 04:41:13;;;;;;;;;;;;;;;19.20;24.80;96239.47;10522070;28;2146;-64
2024/01/10 04:46:13;;;;;;;;;;;;;;;19.19;25.05;96237.88;10509554;28;1911;-64
2024/01/10 04:51:14;;;;;;;;;;;;;;;19.18;24.92;96237.09;10510814;28;1939;-64
2024/01/10 04:56:14;;;;;;;;;;;;;;;19.17;24.94;96246.00;10514961;28;2056;-65
2024/01/10 05:01:15;;;;;;;;;;;;;;;19.14;24.89;96249.16;10507511;28;2189;-64
2024/01/10 05:06:15;;;;;;;;;;;;;;;19.17;24.89;96245.22;10511218;28;1885;-64
2024/01/10 05:11:16;;;;;;;;;;;;;;;19.16;24.72;96243.66;10513278;28;2123;-64
2024/01/10 05:16:17;;;;;;;;;;;;;;;19.17;24.56;96242.59;10506907;28;1943;-65
2024/01/10 05:21:17;;;;;;;;;;;;;;;19.14;24.76;96251.78;10513789;28;2024;-64
2024/01/10 05:26:17;;;;;;;;;;;;;;;19.14;24.79;96251.00;10497303;28;1995;-65
2024/01/10 05:31:17;;;;;;;;;;;;;;;19.14;24.90;96256.25;10513971;28;2228;-65
2024/01/10 05:36:18;;;;;;;;;;;;;;;19.14;24.63;96251.78;10503509;28;2005;-65
2024/01/10 05:41:18;;;;;;;;;;;;;;;19.12;24.45;96251.25;10511069;28;1989;-65
2024/01/10 05:46:19;;;;;;;;;;;;;;;19.13;24.55;96260.72;10508347;28;2006;-66
2024/01/10 05:51:20;;;;;;;;;;;;;;;19.12;24.72;96268.84;10506034;28;1990;-65
2024/01/10 05:56:20;;;;;;;;;;;;;;;19.12;24.71;96266.22;10509812;28;1868;-65
2024/01/10 06:01:23;;;;;;;;;;;;;;;19.12;24.67;96272.28;10507704;28;1954;-65
2024/01/10 06:06:23;;;;;;;;;;;;;;;19.13;24.45;96280.94;10492491;28;2077;-65
2024/01/10 06:11:23;;;;;;;;;;;;;;;19.12;24.59;96284.63;10516324;28;2020;-65
2024/01/10 06:16:24;;;;;;;;;;;;;;;19.11;24.65;96283.00;10511653;28;2059;-65
2024/01/10 06:21:24;;;;;;;;;;;;;;;19.12;24.51;96274.09;10513450;28;1972;-64
2024/01/10 06:26:24;;;;;;;;;;;;;;;19.10;24.42;96271.72;10519312;28;2479;-65
2024/01/10 06:31:25;;;;;;;;;;;;;;;19.12;24.44;96274.91;10519632;28;1950;-65
2024/01/10 06:36:25;;;;;;;;;;;;;;;19.17;24.52;96284.63;10519777;28;2147;-65
2024/01/10 06:41:25;;;;;;;;;;;;;;;19.16;24.42;96283.06;10516848;28;1938;-65
2024/01/10 06:46:25;;;;;;;;;;;;;;;19.17;24.70;96279.38;10516003;28;2033;-65
2024/01/10 06:51:29;;;;;;;;;;;;;;;19.20;24.21;96286.78;10516909;28;1858;-65
2024/01/10 06:56:29;;;;;;;;;;;;;;;19.19;24.58;96274.66;10514745;28;2132;-65
2024/01/10 07:01:30;;;;;;;;;;;;;;;19.18;24.87;96289.66;10518244;28;1983;-65
2024/01/10 07:06:30;;;;;;;;;;;;;;;19.18;24.59;96294.13;10510046;28;2040;-67
2024/01/10 07:11:30;;;;;;;;;;;;;;;19.20;24.73;96299.91;10519170;28;1908;-69
2024/01/10 07:16:30;;;;;;;;;;;;;;;19.20;25.50;96298.09;10517127;28;1989;-72
2024/01/10 07:21:31;;;;;;;;;;;;;;;19.23;24.78;96299.41;10518051;28;2716;-71
2024/01/10 07:26:31;;;;;;;;;;;;;;;19.22;25.27;96309.16;10514208;28;2079;-68
2024/01/10 07:31:31;;;;;;;;;;;;;;;19.27;25.18;96314.41;10512320;28;2079;-68
2024/01/10 07:36:33;;;;;;;;;;;;;;;19.28;25.79;96316.03;10511221;28;1997;-67
2024/01/10 07:41:33;;;;;;;;;;;;;;;19.29;26.50;96330.72;10513933;28;2032;-69
2024/01/10 07:46:34;;;;;;;;;;;;;;;19.30;26.18;96329.69;10506566;28;2107;-69
2024/01/10 07:51:34;;;;;;;;;;;;;;;19.30;25.66;96327.06;10489929;28;2296;-69
2024/01/10 07:56:35;;;;;;;;;;;;;;;19.29;25.88;96333.38;10512525;28;1949;-69
2024/01/10 08:01:35;;;;;;;;;;;;;;;19.29;25.59;96328.09;10511524;28;2032;-68
2024/01/10 08:06:35;;;;;;;;;;;;;;;19.26;26.27;96339.13;10512586;28;1973;-68
2024/01/10 08:11:35;;;;;;;;;;;;;;;19.28;25.92;96344.94;10491388;28;2138;-68
2024/01/10 08:16:36;;;;;;;;;;;;;;;19.28;25.88;96337.06;10511439;28;1910;-70
2024/01/10 08:21:36;;;;;;;;;;;;;;;19.30;25.59;96347.31;10511221;28;3015;-70
2024/01/10 08:26:37;;;;;;;;;;;;;;;19.28;26.16;96349.38;10504238;28;1884;-68
2024/01/10 08:31:38;;;;;;;;;;;;;;;19.32;26.34;96345.22;10510204;28;2078;-68
2024/01/10 08:36:39;;;;;;;;;;;;;;;19.30;26.89;96344.69;10505409;28;2499;-68
2024/01/10 08:41:44;;;;;;;;;;;;;;;19.31;26.69;96341.78;10502754;28;2060;-69
2024/01/10 08:46:44;;;;;;;;;;;;;;;19.33;26.66;96338.94;10511974;28;2063;-68
2024/01/10 08:51:46;;;;;;;;;;;;;;;19.35;26.84;96350.00;10508315;28;2123;-71
2024/01/10 08:56:46;;;;;;;;;;;;;;;19.35;26.64;96353.41;10505944;28;1929;-69
2024/01/10 09:01:46;;;;;;;;;;;;;;;19.33;27.17;96352.06;10507380;28;2134;-68
2024/01/10 09:06:47;;;;;;;;;;;;;;;19.34;26.90;96361.56;10486509;28;2513;-68
2024/01/10 09:11:50;;;;;;;;;;;;;;;19.36;27.15;96362.91;10504891;28;2040;-66
2024/01/10 09:16:52;;;;;;;;;;;;;;;19.36;26.67;96380.50;10498567;28;2028;-67
2024/01/10 09:21:52;;;;;;;;;;;;;;;19.37;26.93;96382.88;10504357;28;1924;-64
2024/01/10 09:26:53;;;;;;;;;;;;;;;19.37;26.57;96382.88;10485130;28;2001;-65
2024/01/10 09:31:54;;;;;;;;;;;;;;;19.37;27.07;96382.88;10510068;28;1953;-65
2024/01/10 09:36:54;;;;;;;;;;;;;;;19.42;27.02;96380.31;10507537;28;2008;-64
2024/01/10 09:41:55;;;;;;;;;;;;;;;19.40;26.98;96377.13;10508501;28;1973;-66
2024/01/10 09:46:55;;;;;;;;;;;;;;;19.40;26.77;96377.13;10505898;28;2150;-65
2024/01/10 09:52:02;;;;;;;;;;;;;;;19.43;26.84;96387.13;10506916;28;2052;-65
2024/01/10 09:57:03;;;;;;;;;;;;;;;19.44;27.04;96380.84;10497858;28;2738;-66
2024/01/10 10:02:04;;;;;;;;;;;;;;;19.45;27.25;96379.78;10513302;28;1968;-66
2024/01/10 10:07:05;;;;;;;;;;;;;;;19.46;27.29;96380.59;10516084;28;1969;-65
2024/01/10 10:12:05;;;;;;;;;;;;;;;19.48;27.13;96374.03;10514018;28;1962;-65
2024/01/10 10:17:15;;;;;;;;;;;;;;;19.50;27.51;96373.78;10512709;28;1971;-65
2024/01/10 10:22:15;;;;;;;;;;;;;;;19.48;27.27;96374.03;10515960;28;1936;-66
2024/01/10 10:27:16;;;;;;;;;;;;;;;19.49;27.40;96372.97;10514878;28;2246;-66
2024/01/10 10:32:18;;;;;;;;;;;;;;;19.54;27.61;96392.50;10517506;28;2198;-65
2024/01/10 10:37:18;;;;;;;;;;;;;;;19.52;27.85;96378.78;10489930;28;2523;-65
2024/01/10 10:42:18;;;;;;;;;;;;;;;19.56;27.66;96385.91;10514177;28;2072;-66
2024/01/10 10:47:19;;;;;;;;;;;;;;;19.53;28.30;96383.81;10498383;28;1977;-64
2024/01/10 10:52:19;;;;;;;;;;;;;;;19.54;28.21;96381.97;10511651;28;1920;-65
2024/01/10 10:57:20;;;;;;;;;;;;;;;19.54;28.50;96385.38;10518006;28;1966;-66
2024/01/10 11:02:22;;;;;;;;;;;;;;;19.56;28.51;96385.16;10496927;28;2476;-65
2024/01/10 11:07:23;;;;;;;;;;;;;;;19.56;28.64;96374.63;10512731;28;1908;-65
2024/01/10 11:12:47;;;;;;;;;;;;;;;19.58;28.51;96372.53;10519739;28;2106;-66
2024/01/10 11:18:02;;;;;;;;;;;;;;;19.61;28.83;96377.28;10494146;28;2267;-65
2024/01/10 11:23:08;;;;;;;;;;;;;;;19.63;29.02;96380.44;10495349;28;2581;-65
2024/01/10 11:28:08;;;;;;;;;;;;;;;19.65;29.50;96375.72;10514773;28;1992;-65
2024/01/10 11:33:19;;;;;;;;;;;;;;;19.67;29.85;96381.53;10494148;28;2054;-67
2024/01/10 11:38:20;;;;;;;;;;;;;;;19.72;29.97;96386.84;10491470;28;1946;-68
2024/01/10 11:43:20;;;;;;;;;;;;;;;19.71;30.05;96382.59;10511513;28;2037;-69
2024/01/10 11:48:27;;;;;;;;;;;;;;;19.74;29.82;96387.38;10514656;28;1989;-67
2024/01/10 11:53:39;;;;;;;;;;;;;;;19.75;30.18;96383.69;10506860;28;1953;-68
2024/01/10 11:58:52;;;;;;;;;;;;;;;19.72;29.88;96382.34;10507398;28;2523;-67
2024/01/10 12:03:53;;;;;;;;;;;;;;;19.73;29.76;96380.53;10512130;28;1937;-64
2024/01/10 12:08:53;;;;;;;;;;;;;;;19.71;29.74;96382.59;10508023;28;1969;-64
2024/01/10 12:13:53;;;;;;;;;;;;;;;19.70;29.70;96381.81;10513217;28;1909;-68
2024/01/10 12:18:54;;;;;;;;;;;;;;;19.68;29.36;96380.50;10511872;28;1977;-67
2024/01/10 12:23:54;;;;;;;;;;;;;;;19.70;29.19;96383.66;10510171;28;2020;-66
2024/01/10 12:28:54;;;;;;;;;;;;;;;19.69;29.05;96376.81;10509511;28;2376;-65
2024/01/10 12:33:55;;;;;;;;;;;;;;;19.67;29.02;96371.81;10512421;28;1896;-66
2024/01/10 12:38:55;;;;;;;;;;;;;;;19.66;29.15;96375.47;10513906;28;1973;-65
2024/01/10 12:43:55;;;;;;;;;;;;;;;19.67;28.59;96371.81;10511209;28;2109;-66
2024/01/10 12:49:00;;;;;;;;;;;;;;;19.64;28.79;96364.41;10517361;28;1898;-66
2024/01/10 12:54:03;;;;;;;;;;;;;;;19.63;28.65;96376.00;10510833;28;2017;-65
2024/01/10 12:59:04;;;;;;;;;;;;;;;19.63;28.83;96367.31;10510101;28;2662;-65
2024/01/10 13:04:04;;;;;;;;;;;;;;;19.63;28.52;96369.94;10504493;28;2135;-65
2024/01/10 13:09:06;;;;;;;;;;;;;;;19.63;28.35;96364.66;10509663;28;1972;-65
2024/01/10 13:14:06;;;;;;;;;;;;;;;19.61;28.59;96362.31;10506151;28;1960;-66
2024/01/10 13:19:06;;;;;;;;;;;;;;;19.62;28.57;96371.00;10507867;28;1977;-67
2024/01/10 13:24:06;;;;;;;;;;;;;;;19.59;28.50;96364.41;10510870;28;2148;-66
2024/01/10 13:29:07;;;;;;;;;;;;;;;19.61;28.53;96366.75;10504436;28;1939;-66
2024/01/10 13:34:07;;;;;;;;;;;;;;;19.58;28.52;96367.28;10505475;28;2205;-66
2024/01/10 13:39:08;;;;;;;;;;;;;;;19.59;28.53;96374.09;10506368;28;2006;-66
2024/01/10 13:44:09;;;;;;;;;;;;;;;19.59;28.42;96384.63;10510527;28;2111;-66
2024/01/10 13:49:11;;;;;;;;;;;;;;;19.57;28.45;96373.56;10495378;28;1906;-66
2024/01/10 13:54:11;;;;;;;;;;;;;;;19.57;28.61;96381.47;10507203;28;2546;-65
2024/01/10 13:59:12;;;;;;;;;;;;;;;19.57;28.26;96379.63;10505371;28;2310;-64
2024/01/10 14:04:12;;;;;;;;;;;;;;;19.58;28.37;96377.81;10506572;28;1870;-64
2024/01/10 14:09:12;;;;;;;;;;;;;;;19.58;28.28;96383.06;10511163;28;1948;-63
2024/01/10 14:14:12;;;;;;;;;;;;;;;19.58;28.11;96388.31;10506488;28;1981;-63
2024/01/10 14:19:13;;;;;;;;;;;;;;;19.57;28.02;96397.25;10507295;28;2022;-64
2024/01/10 14:24:13;;;;;;;;;;;;;;;19.56;28.10;96393.03;10507316;28;2025;-63
2024/01/10 14:29:13;;;;;;;;;;;;;;;19.56;28.02;96391.19;10506062;28;2096;-64
2024/01/10 14:34:15;;;;;;;;;;;;;;;19.55;28.34;96394.06;10491640;28;1994;-65
2024/01/10 14:39:15;;;;;;;;;;;;;;;19.54;28.01;96398.53;10522490;28;1909;-65
2024/01/10 14:44:15;;;;;;;;;;;;;;;19.54;27.79;96410.91;10517306;28;2539;-66
2024/01/10 14:49:15;;;;;;;;;;;;;;;19.53;27.71;96407.47;10513637;28;2003;-65
2024/01/10 14:54:17;;;;;;;;;;;;;;;19.53;28.00;96406.66;10515909;28;2056;-64
2024/01/10 14:59:18;;;;;;;;;;;;;;;19.53;27.57;96410.09;10510197;28;2120;-64
2024/01/10 15:04:18;;;;;;;;;;;;;;;19.52;27.82;96405.88;10516813;28;2068;-65
2024/01/10 15:09:19;;;;;;;;;;;;;;;19.51;27.84;96408.75;10527800;27;2061;-65
2024/01/10 15:14:21;;;;;;;;;;;;;;;19.53;27.91;96409.31;10514652;28;1900;-65
2024/01/10 15:19:21;;;;;;;;;;;;;;;19.51;28.18;96411.38;10509878;28;2067;-64
2024/01/10 15:24:24;;;;;;;;;;;;;;;19.52;28.08;96408.50;10509344;28;2239;-64
2024/01/10 15:29:24;;;;;;;;;;;;;;;19.60;27.94;96421.19;10516843;28;1940;-66
2024/01/10 15:34:24;;;;;;;;;;;;;;;19.65;27.97;96417.81;10507522;28;1974;-66
2024/01/10 15:39:24;;;;;;;;;;;;;;;19.71;27.68;96425.50;10514038;28;2111;-65
2024/01/10 15:44:25;;;;;;;;;;;;;;;19.75;27.36;96420.53;10509694;28;1963;-66
2024/01/10 15:49:25;;;;;;;;;;;;;;;19.80;27.30;96417.94;10507997;28;2005;-65
2024/01/10 15:54:25;;;;;;;;;;;;;;;19.82;27.27;96421.09;10513861;28;1885;-66
2024/01/10 15:59:26;;;;;;;;;;;;;;;19.84;27.27;96419.03;10514127;28;1914;-65
2024/01/10 16:04:26;;;;;;;;;;;;;;;19.84;27.32;96421.66;10496186;28;1980;-65
2024/01/10 16:09:26;;;;;;;;;;;;;;;19.87;27.27;96427.19;10509556;28;2456;-66
2024/01/10 16:14:26;;;;;;;;;;;;;;;20.03;26.74;96428.09;10512910;28;1889;-66
2024/01/10 16:19:27;;;;;;;;;;;;;;;20.14;26.07;96424.47;10507388;28;1935;-66
2024/01/10 16:24:27;;;;;;;;;;;;;;;20.23;26.01;96436.16;10505184;28;2056;-66
2024/01/10 16:29:27;;;;;;;;;;;;;;;20.27;25.91;96430.13;10499343;28;2096;-66
2024/01/10 16:34:28;;;;;;;;;;;;;;;20.38;25.82;96427.53;10512783;28;1858;-66
2024/01/10 16:39:28;;;;;;;;;;;;;;;20.43;25.66;96427.56;10517988;28;2032;-66
2024/01/10 16:44:28;;;;;;;;;;;;;;;20.50;25.17;96417.59;10510918;28;1893;-67
2024/01/10 16:49:29;;;;;;;;;;;;;;;20.52;25.63;96416.28;10513093;28;1951;-67
2024/01/10 16:54:29;;;;;;;;;;;;;;;20.57;25.22;96418.94;10510000;28;2720;-66
2024/01/10 16:59:29;;;;;;;;;;;;;;;20.52;25.68;96421.56;10513196;28;1992;-64
2024/01/10 17:04:32;;;;;;;;;;;;;;;20.47;25.91;96420.72;10487068;28;2041;-65
2024/01/10 17:09:33;;;;;;;;;;;;;;;20.39;26.21;96426.47;10503359;28;2033;-64
2024/01/10 17:14:34;;;;;;;;;;;;;;;20.32;26.51;96421.44;10506717;28;2116;-65
2024/01/10 17:19:34;;;;;;;;;;;;;;;20.24;26.60;96420.09;10505787;28;2068;-65
2024/01/10 17:24:35;;;;;;;;;;;;;;;20.15;27.01;96416.31;10509278;28;2026;-64
2024/01/10 17:29:35;;;;;;;;;;;;;;;20.08;27.17;96415.75;10511029;28;1941;-65
2024/01/10 17:34:35;;;;;;;;;;;;;;;20.01;26.97;96415.19;10501018;28;2083;-64
2024/01/10 17:39:36;;;;;;;;;;;;;;;19.96;27.57;96411.72;10511196;28;2699;-65
2024/01/10 17:44:37;;;;;;;;;;;;;;;19.92;27.12;96415.91;10505415;28;1959;-65
2024/01/10 17:49:37;;;;;;;;;;;;;;;19.90;27.17;96423.28;10491706;28;2008;-67
2024/01/10 17:54:37;;;;;;;;;;;;;;;19.91;27.15;96416.94;10491749;28;1897;-67
2024/01/10 17:59:38;;;;;;;;;;;;;;;19.90;27.09;96424.06;10514818;28;2009;-68
2024/01/10 18:04:38;;;;;;;;;;;;;;;19.93;26.89;96433.28;10501623;28;1990;-67
2024/01/10 18:09:38;;;;;;;;;;;;;;;19.91;27.00;96423.00;10508757;28;2105;-66
2024/01/10 18:14:41;;;;;;;;;;;;;;;19.93;26.68;96430.63;10509684;28;1891;-68
2024/01/10 18:19:44;;;;;;;;;;;;;;;19.95;26.53;96421.44;10513569;28;2609;-63
2024/01/10 18:24:44;;;;;;;;;;;;;;;19.96;26.93;96423.06;10513615;28;2233;-63
2024/01/10 18:29:44;;;;;;;;;;;;;;;19.97;27.33;96429.13;10514023;28;2083;-67
2024/01/10 18:34:44;;;;;;;;;;;;;;;20.01;27.12;96435.47;10527325;28;2048;-67
2024/01/10 18:39:45;;;;;;;;;;;;;;;20.02;26.66;96429.13;10511531;28;2007;-67
2024/01/10 18:44:45;;;;;;;;;;;;;;;20.01;27.40;96432.81;10502270;28;2018;-67
2024/01/10 18:49:45;;;;;;;;;;;;;;;20.05;26.64;96426.78;10516711;28;2065;-59
2024/01/10 18:54:46;;;;;;;;;;;;;;;20.10;26.38;96431.28;10499631;28;2123;-60
2024/01/10 18:59:46;;;;;;;;;;;;;;;20.08;26.80;96431.56;10500282;28;2147;-65
2024/01/10 19:04:46;;;;;;;;;;;;;;;20.08;26.77;96426.28;10516031;28;1909;-64
2024/01/10 19:09:46;;;;;;;;;;;;;;;20.14;26.19;96424.47;10519325;28;2535;-72
2024/01/10 19:14:47;;;;;;;;;;;;;;;20.14;25.25;96427.09;10514276;28;2078;-69
2024/01/10 19:19:47;;;;;;;;;;;;;;;20.13;25.18;96422.91;10496396;28;2033;-67
2024/01/10 19:24:47;;;;;;;;;;;;;;;20.12;25.00;96437.09;10520672;28;2106;-67
2024/01/10 19:29:48;;;;;;;;;;;;;;;20.17;26.07;96445.03;10521415;28;2024;-64
2024/01/10 19:34:48;;;;;;;;;;;;;;;20.20;25.01;96444.53;10502217;28;1989;-65
2024/01/10 19:39:48;;;;;;;;;;;;;;;20.15;24.79;96447.13;10518214;28;2052;-65
2024/01/10 19:44:50;;;;;;;;;;;;;;;20.22;25.45;96452.97;10521587;28;1882;-66
2024/01/10 19:49:50;;;;;;;;;;;;;;;20.38;26.65;96452.00;10515698;28;2332;-68
2024/01/10 19:54:50;;;;;;;;;;;;;;;20.55;25.99;96447.38;10513618;28;2802;-70
2024/01/10 19:59:50;;;;;;;;;;;;;;;20.64;26.96;96443.22;10512413;28;2115;-65
2024/01/10 20:04:51;;;;;;;;;;;;;;;20.79;26.51;96442.47;10511016;28;1943;-66
2024/01/10 20:09:51;;;;;;;;;;;;;;;20.92;26.39;96440.16;10511263;28;1915;-67
2024/01/10 20:14:51;;;;;;;;;;;;;;;21.02;26.21;96437.56;10515040;28;2055;-65
2024/01/10 20:19:53;;;;;;;;;;;;;;;21.14;26.38;96441.81;10521122;28;1934;-67
2024/01/10 20:24:53;;;;;;;;;;;;;;;21.23;26.04;96438.41;10505680;28;2072;-68
2024/01/10 20:29:54;;;;;;;;;;;;;;;21.27;26.31;96441.34;10491820;28;2510;-67
2024/01/10 20:34:54;;;;;;;;;;;;;;;21.32;26.73;96441.31;10492622;28;2070;-66
2024/01/10 20:39:55;;;;;;;;;;;;;;;21.32;26.00;96441.31;10520944;28;1926;-67
2024/01/10 20:44:55;;;;;;;;;;;;;;;21.38;26.76;96446.34;10518295;28;1828;-67
2024/01/10 20:49:55;;;;;;;;;;;;;;;21.44;25.94;96450.56;10500797;28;1797;-66
2024/01/10 20:54:57;;;;;;;;;;;;;;;21.44;25.66;96449.78;10518150;28;1876;-66
2024/01/10 21:00:03;;;;;;;;;;;;;;;21.50;26.39;96448.72;10511800;28;1940;-66
2024/01/10 21:05:04;;;;;;;;;;;;;;;21.55;25.97;96446.91;10515706;28;1761;-65
2024/01/10 21:10:05;;;;;;;;;;;;;;;21.51;25.66;96445.06;10514403;28;1495;-63
2024/01/10 21:15:05;;;;;;;;;;;;;;;21.41;26.56;96442.41;10513794;28;2587;-66
2024/01/10 21:20:06;;;;;;;;;;;;;;;21.38;26.71;96443.72;10516189;28;1882;-62
2024/01/10 21:25:09;;;;;;;;;;;;;;;21.51;26.01;96439.78;10508937;28;1472;-73
2024/01/10 21:30:10;;;;;;;;;;;;;;;21.54;26.58;96439.25;10525251;28;1508;-67
2024/01/10 21:35:12;;;;;;;;;;;;;;;21.55;25.96;96446.09;10522544;28;1757;-69
2024/01/10 21:40:12;;;;;;;;;;;;;;;21.57;25.55;96438.72;10521051;28;1985;-68
2024/01/10 21:45:12;;;;;;;;;;;;;;;21.58;26.12;96435.00;10513832;28;1742;-69
2024/01/10 21:50:12;;;;;;;;;;;;;;;21.62;25.71;96436.06;10513927;28;2259;-67
2024/01/10 21:55:13;;;;;;;;;;;;;;;21.47;26.40;96436.88;10521717;28;2079;-68
2024/01/10 22:00:16;;;;;;;;;;;;;;;21.42;26.02;96436.06;10517874;28;2363;-67
2024/01/10 22:05:16;;;;;;;;;;;;;;;21.38;25.96;96427.88;10519312;28;1987;-67
2024/01/10 22:10:17;;;;;;;;;;;;;;;21.34;26.11;96424.19;10517099;28;1933;-67
2024/01/10 22:15:18;;;;;;;;;;;;;;;21.33;26.22;96419.19;10514394;28;2174;-67
2024/01/10 22:20:18;;;;;;;;;;;;;;;21.30;26.03;96411.78;10515270;28;2110;-66
2024/01/10 22:25:18;;;;;;;;;;;;;;;21.25;25.98;96415.19;10513576;28;2142;-68
2024/01/10 22:30:20;;;;;;;;;;;;;;;21.21;26.08;96419.41;10517358;28;1902;-67
2024/01/10 22:35:21;;;;;;;;;;;;;;;21.19;25.80;96416.25;10508865;28;2045;-68
2024/01/10 22:40:21;;;;;;;;;;;;;;;21.17;25.71;96413.09;10512195;28;2103;-68
2024/01/10 22:45:22;;;;;;;;;;;;;;;21.13;25.89;96417.28;10514586;28;1932;-68
2024/01/10 22:50:22;;;;;;;;;;;;;;;21.12;25.87;96425.47;10515456;28;2379;-68
2024/01/10 22:55:22;;;;;;;;;;;;;;;21.08;25.48;96419.13;10518999;28;1973;-68
2024/01/10 23:00:26;;;;;;;;;;;;;;;21.03;25.85;96431.25;10508454;28;2012;-68
2024/01/10 23:05:28;;;;;;;;;;;;;;;21.01;25.80;96422.78;10510856;28;2218;-67
2024/01/10 23:10:29;;;;;;;;;;;;;;;21.00;25.70;96423.81;10518686;28;1893;-68
2024/01/10 23:15:29;;;;;;;;;;;;;;;20.96;25.71;96412.22;10516345;28;1942;-68
2024/01/10 23:20:29;;;;;;;;;;;;;;;20.94;25.72;96419.59;10516487;28;1973;-68
2024/01/10 23:25:29;;;;;;;;;;;;;;;20.92;25.42;96419.06;10511325;28;2010;-68
2024/01/10 23:30:30;;;;;;;;;;;;;;;20.88;25.82;96410.09;10519636;28;2259;-68
2024/01/10 23:35:32;;;;;;;;;;;;;;;20.86;25.55;96401.66;10519797;28;2114;-67
2024/01/10 23:40:33;;;;;;;;;;;;;;;20.84;25.79;96395.84;10509650;28;2044;-64
2024/01/10 23:45:33;;;;;;;;;;;;;;;20.82;25.39;96395.31;10505420;28;1959;-68
2024/01/10 23:50:33;;;;;;;;;;;;;;;20.81;25.59;96393.72;10514250;28;2016;-67
2024/01/10 23:55:33;;;;;;;;;;;;;;;20.77;25.74;96395.28;10510037;28;2048;-67
